createdAt,value
2022-10-18T00:02:34.656Z,100.00
2022-10-18T00:05:37.000Z,100.00
2022-10-18T00:08:44.893Z,100.00
2022-10-18T00:11:48.002Z,100.00
2022-10-18T00:14:54.253Z,100.00
2022-10-18T00:18:03.657Z,100.00
2022-10-18T00:21:18.295Z,100.00
2022-10-18T00:24:23.651Z,100.00
2022-10-18T00:27:41.367Z,100.00
2022-10-18T00:30:45.094Z,100.00
2022-10-18T00:34:08.320Z,100.00
2022-10-18T00:37:10.487Z,100.00
2022-10-18T00:40:21.310Z,100.00
2022-10-18T00:43:27.341Z,100.00
2022-10-18T00:46:59.622Z,100.00
2022-10-18T00:50:23.482Z,100.00
2022-10-18T00:57:07.720Z,100.00
2022-10-18T01:00:10.659Z,100.00
2022-10-18T01:03:13.019Z,100.00
2022-10-18T01:06:23.213Z,100.00
2022-10-18T01:09:49.062Z,100.00
2022-10-18T01:13:12.041Z,100.00
2022-10-18T01:16:33.270Z,100.00
2022-10-18T01:20:09.669Z,100.00
2022-10-18T01:23:20.111Z,100.00
2022-10-18T01:26:45.754Z,100.00
2022-10-18T01:30:20.199Z,100.00
2022-10-18T01:33:24.584Z,100.00
2022-10-18T01:36:42.731Z,100.00
2022-10-18T01:39:55.932Z,100.00
2022-10-18T01:43:01.740Z,100.00
2022-10-18T01:46:20.288Z,100.00
2022-10-18T01:49:30.651Z,100.00
2022-10-18T01:52:59.911Z,100.00
2022-10-18T01:56:34.695Z,100.00
2022-10-18T01:59:46.597Z,100.00
2022-10-18T02:03:08.792Z,100.00
2022-10-18T02:06:29.071Z,100.00
2022-10-18T02:09:39.562Z,100.00
2022-10-18T02:12:47.188Z,100.00
2022-10-18T02:15:51.521Z,100.00
2022-10-18T02:19:03.141Z,100.00
2022-10-18T02:22:23.569Z,100.00
2022-10-18T02:25:28.677Z,100.00
2022-10-18T02:29:06.853Z,100.00
2022-10-18T02:32:19.259Z,100.00
2022-10-18T02:35:43.785Z,100.00
2022-10-18T02:38:46.510Z,100.00
2022-10-18T02:41:48.910Z,100.00
2022-10-18T02:44:51.276Z,100.00
2022-10-18T02:48:11.566Z,100.00
2022-10-18T02:51:22.326Z,100.00
2022-10-18T02:54:33.943Z,100.00
2022-10-18T02:57:39.156Z,100.00
2022-10-18T03:00:53.197Z,100.00
2022-10-18T03:07:43.911Z,100.00
2022-10-18T03:10:55.190Z,100.00
2022-10-18T03:14:11.356Z,100.00
2022-10-18T03:17:13.593Z,100.00
2022-10-18T03:20:22.145Z,100.00
2022-10-18T03:23:24.789Z,100.00
2022-10-18T03:26:27.367Z,100.00
2022-10-18T03:29:32.775Z,100.00
2022-10-18T03:32:40.721Z,100.00
2022-10-18T03:35:42.968Z,100.00
2022-10-18T03:38:46.284Z,100.00
2022-10-18T03:41:50.950Z,100.00
2022-10-18T03:44:55.380Z,100.00
2022-10-18T03:47:58.158Z,100.00
2022-10-18T03:51:02.775Z,100.00
2022-10-18T03:54:06.275Z,100.00
2022-10-18T03:57:09.392Z,100.00
2022-10-18T04:00:12.371Z,100.00
2022-10-18T04:03:14.913Z,100.00
2022-10-18T04:06:18.352Z,100.00
2022-10-18T04:09:22.818Z,100.00
2022-10-18T04:12:27.487Z,100.00
2022-10-18T04:15:30.278Z,100.00
2022-10-18T04:18:32.747Z,100.00
2022-10-18T04:21:35.764Z,100.00
2022-10-18T04:24:38.315Z,100.00
2022-10-18T04:27:40.451Z,100.00
2022-10-18T04:30:43.491Z,100.00
2022-10-18T04:33:46.261Z,100.00
2022-10-18T04:36:48.960Z,100.00
2022-10-18T04:39:53.721Z,100.00
2022-10-18T04:42:58.815Z,100.00
2022-10-18T04:46:02.192Z,100.00
2022-10-18T04:49:05.869Z,100.00
2022-10-18T04:52:09.628Z,100.00
2022-10-18T04:55:12.701Z,100.00
2022-10-18T04:58:15.948Z,100.00
2022-10-18T05:01:19.104Z,100.00
2022-10-18T05:04:22.092Z,100.00
2022-10-18T05:07:24.491Z,100.00
2022-10-18T05:10:28.380Z,100.00
2022-10-18T05:13:31.583Z,100.00
2022-10-18T05:16:33.700Z,100.00
2022-10-18T05:19:42.780Z,100.00
2022-10-18T05:22:46.584Z,100.00
2022-10-18T05:25:52.439Z,100.00
2022-10-18T05:28:58.811Z,100.00
2022-10-18T05:32:02.027Z,100.00
2022-10-18T05:35:05.208Z,100.00
2022-10-18T05:38:08.079Z,100.00
2022-10-18T05:41:11.646Z,100.00
2022-10-18T05:44:15.080Z,100.00
2022-10-18T05:47:19.715Z,100.00
2022-10-18T05:50:22.285Z,100.00
2022-10-18T05:53:36.153Z,100.00
2022-10-18T05:59:47.432Z,100.00
2022-10-18T06:02:50.570Z,100.00
2022-10-18T06:05:53.628Z,100.00
2022-10-18T06:08:57.736Z,100.00
2022-10-18T06:12:00.827Z,100.00
2022-10-18T06:15:04.837Z,100.00
2022-10-18T06:18:07.822Z,100.00
2022-10-18T06:21:10.194Z,100.00
2022-10-18T06:24:15.006Z,100.00
2022-10-18T06:27:18.651Z,100.00
2022-10-18T06:30:23.278Z,100.00
2022-10-18T06:33:26.758Z,100.00
2022-10-18T06:36:30.158Z,100.00
2022-10-18T06:39:33.556Z,100.00
2022-10-18T06:42:39.308Z,100.00
2022-10-18T06:45:41.998Z,100.00
2022-10-18T06:48:44.085Z,100.00
2022-10-18T06:51:47.967Z,100.00
2022-10-18T06:54:51.485Z,100.00
2022-10-18T06:57:56.099Z,100.00
2022-10-18T07:01:00.131Z,100.00
2022-10-18T07:04:03.407Z,100.00
2022-10-18T07:07:08.444Z,100.00
2022-10-18T07:10:13.031Z,100.00
2022-10-18T07:13:33.031Z,100.00
2022-10-18T07:16:37.990Z,100.00
2022-10-18T07:19:40.690Z,96.33
2022-10-18T07:22:44.392Z,98.28
2022-10-18T07:25:47.686Z,96.23
2022-10-18T07:29:09.187Z,91.55
2022-10-18T07:32:11.993Z,87.16
2022-10-18T07:35:15.913Z,89.82
2022-10-18T07:38:23.813Z,83.52
2022-10-18T07:41:27.298Z,81.47
2022-10-18T07:44:35.219Z,82.21
2022-10-18T07:47:37.936Z,81.78
2022-10-18T07:50:44.583Z,82.25
2022-10-18T07:53:47.547Z,81.29
2022-10-18T07:56:53.322Z,79.21
2022-10-18T07:59:58.335Z,81.57
2022-10-18T08:03:01.344Z,79.07
2022-10-18T08:06:04.169Z,77.64
2022-10-18T08:09:07.218Z,74.44
2022-10-18T08:12:09.199Z,72.19
2022-10-18T08:15:12.363Z,74.57
2022-10-18T08:18:14.639Z,73.81
2022-10-18T08:21:18.737Z,73.19
2022-10-18T08:24:26.546Z,70.44
2022-10-18T08:27:29.866Z,72.07
2022-10-18T08:30:33.475Z,70.76
2022-10-18T08:33:41.511Z,69.22
2022-10-18T08:36:44.242Z,67.90
2022-10-18T08:39:46.708Z,69.32
2022-10-18T08:42:58.530Z,67.17
2022-10-18T08:46:01.705Z,67.42
2022-10-18T08:49:04.917Z,66.99
2022-10-18T08:52:30.841Z,63.19
2022-10-18T08:55:43.995Z,62.21
2022-10-18T08:58:47.354Z,64.16
2022-10-18T09:02:03.883Z,60.40
2022-10-18T09:05:25.139Z,62.04
2022-10-18T09:08:28.186Z,61.00
2022-10-18T09:11:50.001Z,60.34
2022-10-18T09:15:12.039Z,59.84
2022-10-18T09:18:50.174Z,58.66
2022-10-18T09:21:56.415Z,56.85
2022-10-18T09:25:06.264Z,56.36
2022-10-18T09:28:19.180Z,55.70
2022-10-18T09:31:28.112Z,53.93
2022-10-18T09:34:36.106Z,56.11
2022-10-18T09:37:40.400Z,55.41
2022-10-18T09:40:55.925Z,53.68
2022-10-18T09:44:01.745Z,53.71
2022-10-18T09:47:14.570Z,52.11
2022-10-18T09:50:33.851Z,51.72
2022-10-18T09:53:59.563Z,52.04
2022-10-18T09:57:10.178Z,55.08
2022-10-18T10:00:18.465Z,50.72
2022-10-18T10:03:20.478Z,51.28
2022-10-18T10:06:31.341Z,48.29
2022-10-18T10:09:41.431Z,49.30
2022-10-18T10:12:44.456Z,47.52
2022-10-18T10:15:54.443Z,49.69
2022-10-18T10:18:56.501Z,48.23
2022-10-18T10:22:05.013Z,48.06
2022-10-18T10:25:09.113Z,46.82
2022-10-18T10:28:16.179Z,45.39
2022-10-18T10:31:25.579Z,46.28
2022-10-18T10:34:31.093Z,46.33
2022-10-18T10:37:36.726Z,46.62
2022-10-18T10:40:50.506Z,45.83
2022-10-18T10:43:53.586Z,44.39
2022-10-18T10:46:56.958Z,45.89
2022-10-18T10:49:59.748Z,44.97
2022-10-18T10:53:03.379Z,44.63
2022-10-18T10:56:15.969Z,45.87
2022-10-18T10:59:20.700Z,45.38
2022-10-18T11:02:23.353Z,44.53
2022-10-18T11:05:28.089Z,45.61
2022-10-18T11:08:41.657Z,45.08
2022-10-18T11:11:50.040Z,44.60
2022-10-18T11:15:12.539Z,44.22
2022-10-18T11:18:21.423Z,44.16
2022-10-18T11:21:28.796Z,45.85
2022-10-18T11:24:30.947Z,43.94
2022-10-18T11:27:37.044Z,46.70
2022-10-18T11:31:06.771Z,43.52
2022-10-18T11:34:28.040Z,42.71
2022-10-18T11:37:41.263Z,44.31
2022-10-18T11:40:50.339Z,45.35
2022-10-18T11:44:02.793Z,44.54
2022-10-18T11:47:24.991Z,45.11
2022-10-18T11:50:47.756Z,43.69
2022-10-18T11:54:09.884Z,43.45
2022-10-18T11:57:12.643Z,41.39
2022-10-18T12:00:23.709Z,42.79
2022-10-18T12:03:35.842Z,41.73
2022-10-18T12:06:40.879Z,41.49
2022-10-18T12:12:54.000Z,43.16
2022-10-18T12:15:56.300Z,42.04
2022-10-18T12:19:00.412Z,42.51
2022-10-18T12:22:23.855Z,43.02
2022-10-18T12:25:27.998Z,40.99
2022-10-18T12:28:34.296Z,41.59
2022-10-18T12:31:40.888Z,40.91
2022-10-18T12:34:47.594Z,41.18
2022-10-18T12:37:56.884Z,42.61
2022-10-18T12:40:59.349Z,41.74
2022-10-18T12:44:05.615Z,40.42
2022-10-18T12:47:25.203Z,40.56
2022-10-18T12:50:28.671Z,38.39
2022-10-18T12:53:35.657Z,40.72
2022-10-18T12:56:43.321Z,40.29
2022-10-18T12:59:46.444Z,40.68
2022-10-18T13:03:09.816Z,41.11
2022-10-18T13:06:13.546Z,40.09
2022-10-18T13:09:18.845Z,41.79
2022-10-18T13:12:22.980Z,40.83
2022-10-18T13:15:27.597Z,41.60
2022-10-18T13:18:45.750Z,40.98
2022-10-18T13:22:07.286Z,40.17
2022-10-18T13:25:26.443Z,40.17
2022-10-18T13:28:36.419Z,40.60
2022-10-18T13:31:45.825Z,40.23
2022-10-18T13:34:49.133Z,41.66
2022-10-18T13:37:59.072Z,40.83
2022-10-18T13:41:08.857Z,40.56
2022-10-18T13:44:52.337Z,41.75
2022-10-18T13:47:54.363Z,41.00
2022-10-18T13:51:07.682Z,42.37
2022-10-18T13:54:23.383Z,42.29
2022-10-18T13:57:51.845Z,40.91
2022-10-18T14:01:03.396Z,41.89
2022-10-18T14:04:15.306Z,41.49
2022-10-18T14:07:20.266Z,42.17
2022-10-18T14:10:43.298Z,41.44
2022-10-18T14:13:49.295Z,42.29
2022-10-18T14:17:00.157Z,42.26
2022-10-18T14:20:15.746Z,42.36
2022-10-18T14:23:20.576Z,42.19
2022-10-18T14:26:26.380Z,42.84
2022-10-18T14:29:28.980Z,42.71
2022-10-18T14:32:36.216Z,43.07
2022-10-18T14:35:41.497Z,43.59
2022-10-18T14:39:02.065Z,46.21
2022-10-18T14:42:04.502Z,44.47
2022-10-18T14:45:18.058Z,46.82
2022-10-18T14:48:25.361Z,46.00
2022-10-18T14:51:30.907Z,46.84
2022-10-18T14:54:36.889Z,47.51
2022-10-18T14:57:39.658Z,46.26
2022-10-18T15:00:43.971Z,46.78
2022-10-18T15:03:50.688Z,47.43
2022-10-18T15:06:54.859Z,47.23
2022-10-18T15:09:59.076Z,48.50
2022-10-18T15:13:09.634Z,48.98
2022-10-18T15:16:18.174Z,49.83
2022-10-18T15:19:23.667Z,52.26
2022-10-18T15:22:32.393Z,50.58
2022-10-18T15:25:36.451Z,51.52
2022-10-18T15:28:58.685Z,53.04
2022-10-18T15:32:15.506Z,54.47
2022-10-18T15:35:24.957Z,53.59
2022-10-18T15:38:32.488Z,55.40
2022-10-18T15:41:40.446Z,58.27
2022-10-18T15:44:52.539Z,58.06
2022-10-18T15:48:07.045Z,59.64
2022-10-18T15:51:20.638Z,63.02
2022-10-18T15:54:36.365Z,63.45
2022-10-18T15:57:39.646Z,64.60
2022-10-18T16:00:43.842Z,64.68
2022-10-18T16:03:47.667Z,66.42
2022-10-18T16:06:50.803Z,68.73
2022-10-18T16:09:54.101Z,69.92
2022-10-18T16:12:57.782Z,70.45
2022-10-18T16:16:00.555Z,71.66
2022-10-18T16:19:03.407Z,73.98
2022-10-18T16:22:07.957Z,76.22
2022-10-18T16:25:10.865Z,76.29
2022-10-18T16:28:14.325Z,78.61
2022-10-18T16:31:21.088Z,78.75
2022-10-18T16:34:25.732Z,79.80
2022-10-18T16:37:29.092Z,80.20
2022-10-18T16:40:31.698Z,81.32
2022-10-18T16:43:35.606Z,82.66
2022-10-18T16:46:39.342Z,82.62
2022-10-18T16:49:42.110Z,82.67
2022-10-18T16:52:46.226Z,83.18
2022-10-18T16:55:51.676Z,85.48
2022-10-18T16:58:54.410Z,86.33
2022-10-18T17:01:57.813Z,86.26
2022-10-18T17:05:01.273Z,87.08
2022-10-18T17:08:05.066Z,87.47
2022-10-18T17:11:07.363Z,87.38
2022-10-18T17:14:10.827Z,88.65
2022-10-18T17:17:14.240Z,89.84
2022-10-18T17:20:20.924Z,90.21
2022-10-18T17:23:24.207Z,91.91
2022-10-18T17:26:29.748Z,92.72
2022-10-18T17:29:33.667Z,91.95
2022-10-18T17:32:36.040Z,92.79
2022-10-18T17:35:43.329Z,92.82
2022-10-18T17:38:49.717Z,92.38
2022-10-18T17:41:53.469Z,92.92
2022-10-18T17:44:57.796Z,91.94
2022-10-18T17:48:01.020Z,92.61
2022-10-18T17:51:07.613Z,92.71
2022-10-18T17:54:10.129Z,92.79
2022-10-18T17:57:13.359Z,94.23
2022-10-18T18:00:16.858Z,94.43
2022-10-18T18:03:19.381Z,95.58
2022-10-18T18:06:31.988Z,96.66
2022-10-18T18:09:36.488Z,96.84
2022-10-18T18:12:42.409Z,97.54
2022-10-18T18:15:44.778Z,97.66
2022-10-18T18:18:47.504Z,97.57
2022-10-18T18:21:54.058Z,98.87
2022-10-18T18:24:56.328Z,99.19
2022-10-18T18:28:00.652Z,99.76
2022-10-18T18:31:06.777Z,100.00
2022-10-18T18:34:09.973Z,100.00
2022-10-18T18:37:12.902Z,100.00
2022-10-18T18:40:17.178Z,100.00
2022-10-18T18:43:23.158Z,100.00
2022-10-18T18:46:28.629Z,100.00
2022-10-18T18:49:31.832Z,100.00
2022-10-18T18:52:35.216Z,100.00
2022-10-18T18:55:42.598Z,100.00
2022-10-18T18:58:46.491Z,100.00
2022-10-18T19:01:50.076Z,100.00
2022-10-18T19:04:54.538Z,100.00
2022-10-18T19:07:57.350Z,100.00
2022-10-18T19:10:59.891Z,100.00
2022-10-18T19:14:03.194Z,100.00
2022-10-18T19:17:07.821Z,100.00
2022-10-18T19:20:17.165Z,100.00
2022-10-18T19:23:20.421Z,100.00
2022-10-18T19:26:24.841Z,100.00
2022-10-18T19:29:28.791Z,100.00
2022-10-18T19:32:31.989Z,100.00
2022-10-18T19:35:36.265Z,100.00
2022-10-18T19:38:40.928Z,100.00
2022-10-18T19:41:44.124Z,100.00
2022-10-18T19:44:47.115Z,100.00
2022-10-18T19:47:50.315Z,100.00
2022-10-18T19:50:53.465Z,100.00
2022-10-18T19:53:57.639Z,100.00
2022-10-18T19:57:00.501Z,100.00
2022-10-18T20:00:06.722Z,100.00
2022-10-18T20:03:11.572Z,100.00
2022-10-18T20:06:14.926Z,100.00
2022-10-18T20:09:20.646Z,100.00
2022-10-18T20:12:25.823Z,100.00
2022-10-18T20:15:28.981Z,100.00
2022-10-18T20:18:31.810Z,100.00
2022-10-18T20:21:37.731Z,100.00
2022-10-18T20:24:40.452Z,100.00
2022-10-18T20:27:43.368Z,100.00
2022-10-18T20:30:45.961Z,100.00
2022-10-18T20:33:48.814Z,100.00
2022-10-18T20:36:52.272Z,100.00
2022-10-18T20:39:54.798Z,100.00
2022-10-18T20:43:03.748Z,100.00
2022-10-18T20:46:06.919Z,100.00
2022-10-18T20:49:12.098Z,100.00
2022-10-18T20:52:15.607Z,100.00
2022-10-18T20:55:19.309Z,100.00
2022-10-18T20:58:22.296Z,100.00
2022-10-18T21:01:26.917Z,100.00
2022-10-18T21:04:30.831Z,100.00
2022-10-18T21:07:34.497Z,100.00
2022-10-18T21:10:41.407Z,100.00
2022-10-18T21:13:46.045Z,100.00
2022-10-18T21:16:49.237Z,100.00
2022-10-18T21:19:52.399Z,100.00
2022-10-18T21:22:55.096Z,100.00
2022-10-18T21:25:58.620Z,100.00
2022-10-18T21:29:01.538Z,100.00
2022-10-18T21:32:04.405Z,100.00
2022-10-18T21:35:06.861Z,100.00
2022-10-18T21:38:11.900Z,100.00
2022-10-18T21:41:15.918Z,100.00
2022-10-18T21:44:19.211Z,100.00
2022-10-18T21:47:21.997Z,100.00
2022-10-18T21:50:25.494Z,100.00
2022-10-18T21:53:29.113Z,100.00
2022-10-18T21:56:33.127Z,100.00
2022-10-18T21:59:36.424Z,100.00
2022-10-18T22:02:41.545Z,100.00
2022-10-18T22:05:45.172Z,100.00
2022-10-18T22:08:56.141Z,100.00
2022-10-18T22:11:59.445Z,100.00
2022-10-18T22:15:04.364Z,100.00
2022-10-18T22:18:07.450Z,100.00
2022-10-18T22:21:11.339Z,100.00
2022-10-18T22:24:14.449Z,100.00
2022-10-18T22:27:17.131Z,100.00
2022-10-18T22:30:19.729Z,100.00
2022-10-18T22:33:21.685Z,100.00
2022-10-18T22:36:25.853Z,100.00
2022-10-18T22:39:28.599Z,100.00
2022-10-18T22:42:31.449Z,100.00
2022-10-18T22:45:35.024Z,100.00
2022-10-18T22:48:39.481Z,100.00
2022-10-18T22:51:42.129Z,100.00
2022-10-18T22:54:45.210Z,100.00
2022-10-18T22:57:48.782Z,100.00
2022-10-18T23:00:54.528Z,100.00
2022-10-18T23:03:58.644Z,100.00
2022-10-18T23:07:01.407Z,100.00
2022-10-18T23:10:04.709Z,100.00
2022-10-18T23:13:09.849Z,100.00
2022-10-18T23:16:19.391Z,100.00
2022-10-18T23:19:22.963Z,100.00
2022-10-18T23:22:27.123Z,100.00
2022-10-18T23:25:31.242Z,100.00
2022-10-18T23:28:36.098Z,100.00
2022-10-18T23:31:40.312Z,100.00
2022-10-18T23:34:44.163Z,100.00
2022-10-18T23:37:46.769Z,100.00
2022-10-18T23:40:51.905Z,100.00
2022-10-18T23:43:54.655Z,100.00
2022-10-18T23:46:59.209Z,100.00
2022-10-18T23:50:02.402Z,100.00
2022-10-18T23:53:04.764Z,100.00
2022-10-18T23:56:08.592Z,100.00
2022-10-18T23:59:11.879Z,100.00
